Time;durP1;ratioP1;P1;durP2;ratioP2;P2;SDS_P1;SDS_P2;PMS_P1;PMS_P2;Temp;Humidity;BMP_temperature;BMP_pressure;BME280_temperature;BME280_humidity;BME280_pressure;Samples;Min_cycle;Max_cycle;Signal;HPM_P1;HPM_P2
2021/05/05 00:01:58;;;;;;;;;5.25;5.25;;;;;29.65;60.06;98737.13;5091801;28;8843;-75
2021/05/05 00:04:27;;;;;;;;;3.25;3.25;;;;;29.66;60.24;98732.47;5091320;28;8845;-76
2021/05/05 00:06:57;;;;;;;;;6.50;6.50;;;;;29.66;60.12;98737.91;5091482;28;8830;-76
2021/05/05 00:09:29;;;;;;;;;5.75;5.75;;;;;29.57;60.01;98727.47;5091531;28;8841;-75
2021/05/05 00:11:57;;;;;;;;;6.50;6.50;;;;;29.56;60.16;98734.06;5091501;28;8833;-75
2021/05/05 00:14:26;;;;;;;;;6.50;6.50;;;;;29.58;59.67;98741.81;5092062;28;9554;-75
2021/05/05 00:16:54;;;;;;;;;5.50;5.50;;;;;29.57;60.39;98754.63;5091687;28;8840;-75
2021/05/05 00:19:23;;;;;;;;;5.75;5.75;;;;;29.55;60.61;98751.53;5091587;28;8947;-75
2021/05/05 00:21:52;;;;;;;;;5.75;5.75;;;;;29.55;60.24;98754.25;5091698;28;8864;-75
2021/05/05 00:24:20;;;;;;;;;7.00;7.00;;;;;29.54;59.87;98750.75;5091606;28;8849;-76
2021/05/05 00:26:48;;;;;;;;;5.25;5.25;;;;;29.54;60.60;98755.44;5091275;28;8825;-75
2021/05/05 00:29:16;;;;;;;;;7.25;7.25;;;;;29.54;60.93;98756.19;5091208;28;8894;-75
2021/05/05 00:31:44;;;;;;;;;6.25;6.25;;;;;29.54;60.58;98775.22;5094589;28;8875;-75
2021/05/05 00:34:12;;;;;;;;;5.50;5.50;;;;;29.55;60.64;98776.00;5094849;28;8857;-76
2021/05/05 00:36:40;;;;;;;;;5.50;5.50;;;;;29.51;60.40;98775.22;5094747;28;8848;-76
2021/05/05 00:39:09;;;;;;;;;7.00;6.00;;;;;29.52;59.98;98785.72;5094709;28;8841;-76
2021/05/05 00:41:37;;;;;;;;;8.50;8.50;;;;;29.53;60.32;98791.94;5094788;28;8825;-76
2021/05/05 00:44:05;;;;;;;;;5.00;5.00;;;;;29.51;60.89;98783.38;5094571;28;8833;-75
2021/05/05 00:46:33;;;;;;;;;7.75;7.75;;;;;29.57;60.73;98797.34;5094706;28;9577;-75
2021/05/05 00:49:02;;;;;;;;;8.00;8.00;;;;;29.58;60.22;98799.69;5094584;28;8896;-75
2021/05/05 00:51:30;;;;;;;;;7.00;7.00;;;;;29.55;60.58;98795.03;5094439;28;8867;-73
2021/05/05 00:53:58;;;;;;;;;7.00;7.00;;;;;29.55;61.20;98797.75;5092539;28;8868;-73
2021/05/05 00:56:27;;;;;;;;;7.50;7.50;;;;;29.50;60.36;98798.91;5093276;28;8849;-72
2021/05/05 00:58:55;;;;;;;;;6.25;6.25;;;;;29.54;61.31;98813.28;5092013;28;8918;-74
2021/05/05 01:01:23;;;;;;;;;7.00;7.00;;;;;29.56;60.98;98814.84;5093172;28;8837;-74
2021/05/05 01:03:52;;;;;;;;;7.50;7.50;;;;;29.60;61.29;98826.47;5093047;28;8864;-73
2021/05/05 01:06:20;;;;;;;;;12.00;12.00;;;;;29.62;60.57;98829.56;5093179;28;8840;-74
2021/05/05 01:08:48;;;;;;;;;11.00;11.00;;;;;29.69;60.77;98829.56;5093138;28;8857;-74
2021/05/05 01:11:16;;;;;;;;;13.00;13.00;;;;;29.73;60.18;98836.53;5093108;28;8937;-74
2021/05/05 01:13:45;;;;;;;;;9.25;9.25;;;;;29.80;60.62;98838.47;5092903;28;8956;-74
2021/05/05 01:16:15;;;;;;;;;4.50;4.50;;;;;29.82;59.17;98836.13;5092706;28;8838;-74
2021/05/05 01:18:43;;;;;;;;;6.75;6.75;;;;;29.90;59.49;98847.75;5093355;28;8888;-75
2021/05/05 01:21:12;;;;;;;;;11.50;10.25;;;;;29.93;59.29;98852.38;5093129;28;8991;-74
2021/05/05 01:23:40;;;;;;;;;11.00;11.00;;;;;29.96;59.25;98851.59;5092875;28;8849;-73
2021/05/05 01:26:08;;;;;;;;;10.75;10.50;;;;;29.98;61.06;98858.19;5091798;28;8968;-73
2021/05/05 01:28:41;;;;;;;;;9.75;9.75;;;;;29.97;58.79;98862.09;5092974;28;8845;-73
2021/05/05 01:31:12;;;;;;;;;10.25;10.25;;;;;30.01;59.82;98865.59;5092512;28;8867;-74
2021/05/05 01:33:41;;;;;;;;;9.00;9.00;;;;;30.02;61.46;98872.59;5092690;28;8838;-74
2021/05/05 01:36:13;;;;;;;;;9.75;9.75;;;;;30.04;60.90;98870.25;5092387;28;8841;-74
2021/05/05 01:38:41;;;;;;;;;9.50;9.50;;;;;30.09;58.37;98879.97;5092398;28;8838;-72
2021/05/05 01:41:10;;;;;;;;;9.50;9.50;;;;;30.10;58.60;98881.50;5091965;28;8956;-72
2021/05/05 01:43:38;;;;;;;;;9.25;9.25;;;;;30.15;59.25;98884.59;5091803;28;8963;-73
2021/05/05 01:46:06;;;;;;;;;10.75;10.75;;;;;30.21;59.68;98879.53;5090011;28;8861;-73
2021/05/05 01:48:35;;;;;;;;;9.25;9.25;;;;;30.24;58.93;98884.19;5092209;28;8891;-73
2021/05/05 01:51:03;;;;;;;;;8.50;8.50;;;;;30.28;59.43;98892.31;5092252;28;9601;-74
2021/05/05 01:53:32;;;;;;;;;11.25;11.25;;;;;30.29;59.91;98888.44;5092277;28;8861;-73
2021/05/05 01:56:01;;;;;;;;;11.75;11.75;;;;;30.27;60.04;98877.94;5090998;28;8960;-74
2021/05/05 01:58:29;;;;;;;;;9.75;8.25;;;;;30.33;59.46;98879.09;5092150;28;8849;-75
2021/05/05 02:00:57;;;;;;;;;13.00;13.00;;;;;30.38;58.59;98878.69;5092402;28;8841;-75
2021/05/05 02:03:25;;;;;;;;;16.25;16.25;;;;;30.41;60.18;98886.06;5090769;28;8960;-75
2021/05/05 02:05:54;;;;;;;;;7.00;7.00;;;;;30.43;60.97;98875.53;5108323;28;8852;-75
2021/05/05 02:08:22;;;;;;;;;12.75;12.75;;;;;30.46;58.75;98877.47;5091983;28;8949;-72
2021/05/05 02:10:51;;;;;;;;;13.75;13.75;;;;;30.52;58.97;98889.50;5090684;28;8845;-74
2021/05/05 02:13:22;;;;;;;;;13.25;13.25;;;;;30.57;58.68;98885.59;5093526;28;8848;-74
2021/05/05 02:15:50;;;;;;;;;14.00;14.00;;;;;30.62;59.99;98887.16;5107173;28;8849;-74
2021/05/05 02:18:19;;;;;;;;;13.50;13.50;;;;;30.62;58.30;98879.75;5092023;28;8868;-80
2021/05/05 02:20:47;;;;;;;;;12.50;9.75;;;;;30.72;58.01;98887.09;5092119;28;8930;-76
2021/05/05 02:23:15;;;;;;;;;15.00;15.00;;;;;30.78;58.34;98887.44;5092924;28;8849;-77
2021/05/05 02:25:44;;;;;;;;;6.25;6.25;;;;;30.81;58.48;98892.88;5093465;28;8857;-76
2021/05/05 02:28:12;;;;;;;;;12.75;12.75;;;;;30.85;58.26;98894.81;5092054;28;8930;-77
2021/05/05 02:30:41;;;;;;;;;11.75;11.75;;;;;30.88;58.02;98902.19;5092807;28;8857;-75
2021/05/05 02:33:09;;;;;;;;;7.00;7.00;;;;;30.90;58.31;98900.59;5092493;28;8853;-75
2021/05/05 02:35:37;;;;;;;;;11.25;11.00;;;;;30.94;57.74;98892.41;5092357;28;8845;-76
2021/05/05 02:38:06;;;;;;;;;12.75;12.75;;;;;31.07;57.59;98907.13;5092226;28;8867;-77
2021/05/05 02:40:36;;;;;;;;;14.25;14.25;;;;;31.18;57.41;98909.78;5091612;28;8934;-77
2021/05/05 02:43:05;;;;;;;;;14.00;14.00;;;;;31.24;57.31;98910.88;5107213;28;8960;-80
2021/05/05 02:45:34;;;;;;;;;12.00;12.00;;;;;31.33;57.45;98911.22;5091925;28;8942;-76
2021/05/05 02:48:03;;;;;;;;;17.00;15.50;;;;;31.39;57.19;98912.34;5092314;28;8956;-78
2021/05/05 02:50:31;;;;;;;;;13.25;13.25;;;;;31.40;56.96;98906.47;5091692;28;8846;-79
2021/05/05 02:53:00;;;;;;;;;13.00;13.00;;;;;31.42;56.74;98898.66;5091152;28;8845;-78
2021/05/05 02:55:29;;;;;;;;;8.00;8.00;;;;;31.43;57.13;98896.72;5093118;28;9602;-78
2021/05/05 02:57:57;;;;;;;;;12.25;10.50;;;;;31.57;56.84;98904.78;5090345;28;8918;-75
2021/05/05 03:00:26;;;;;;;;;12.50;12.50;;;;;31.68;56.60;98910.94;5091666;28;8846;-77
2021/05/05 03:02:54;;;;;;;;;12.75;12.75;;;;;31.73;56.16;98905.03;5106285;28;8865;-79
2021/05/05 03:05:22;;;;;;;;;9.25;9.25;;;;;31.82;55.91;98901.84;5098349;28;8979;-73
2021/05/05 03:07:50;;;;;;;;;12.50;11.75;;;;;31.84;56.48;98890.53;5097817;28;8883;-77
2021/05/05 03:10:19;;;;;;;;;12.00;12.00;;;;;31.84;56.16;98891.31;5096163;28;8841;-76
2021/05/05 03:12:47;;;;;;;;;12.50;11.25;;;;;31.87;55.59;98893.22;5090339;28;8842;-73
2021/05/05 03:15:16;;;;;;;;;12.00;12.00;;;;;31.95;55.77;98902.09;5090763;28;8898;-75
2021/05/05 03:17:44;;;;;;;;;11.75;11.75;;;;;32.04;55.71;98899.66;5090387;28;8861;-75
2021/05/05 03:20:13;;;;;;;;;10.75;10.75;;;;;32.13;56.07;98899.97;5090263;28;8865;-75
2021/05/05 03:22:42;;;;;;;;;12.75;12.75;;;;;32.10;55.34;98882.44;5089578;28;8906;-76
2021/05/05 03:25:10;;;;;;;;;12.00;11.25;;;;;32.27;54.95;98891.63;5090308;28;8849;-76
2021/05/05 03:27:38;;;;;;;;;10.50;10.50;;;;;32.34;55.69;98885.31;5090508;28;9042;-75
2021/05/05 03:30:08;;;;;;;;;12.75;12.75;;;;;32.33;55.32;98875.56;5089186;28;8845;-77
2021/05/05 03:32:36;;;;;;;;;14.25;13.75;;;;;32.43;55.43;98878.16;5090129;28;8829;-76
2021/05/05 03:35:05;;;;;;;;;11.75;11.75;;;;;32.39;55.50;98868.47;5091111;28;8984;-76
2021/05/05 03:37:34;;;;;;;;;14.00;14.00;;;;;32.45;55.13;98875.03;5090519;28;8857;-75
2021/05/05 03:40:08;;;;;;;;;11.75;11.75;;;;;32.47;55.60;98866.44;5090402;28;8903;-76
2021/05/05 03:42:37;;;;;;;;;13.50;12.50;;;;;32.47;55.13;98869.94;5093172;28;8863;-77
2021/05/05 03:45:21;;;;;;;;;9.50;9.50;;;;;32.52;55.13;98863.22;5090987;28;8962;-79
2021/05/05 03:47:49;;;;;;;;;12.25;12.25;;;;;32.51;55.01;98846.06;5090498;28;8967;-78
2021/05/05 03:50:21;;;;;;;;;13.50;13.50;;;;;32.64;55.23;98854.47;5092907;28;8926;-78
2021/05/05 03:52:49;;;;;;;;;13.25;13.25;;;;;32.69;55.12;98856.72;5092076;28;8880;-77
2021/05/05 03:55:19;;;;;;;;;11.75;11.75;;;;;32.80;54.98;98862.06;5092815;28;8969;-76
2021/05/05 03:57:47;;;;;;;;;12.50;12.25;;;;;32.85;54.29;98862.38;5089849;28;8861;-76
2021/05/05 04:00:16;;;;;;;;;13.75;13.75;;;;;32.86;54.17;98842.06;5091069;28;8865;-75
2021/05/05 04:02:44;;;;;;;;;7.75;7.75;;;;;33.01;54.85;98851.59;5090410;28;8834;-75
2021/05/05 04:05:13;;;;;;;;;14.75;14.75;;;;;33.06;54.16;98851.13;5093681;28;8937;-73
2021/05/05 04:07:42;;;;;;;;;14.00;14.00;;;;;33.08;54.66;98847.97;5095119;28;8895;-77
2021/05/05 04:10:12;;;;;;;;;13.00;13.00;;;;;33.05;53.15;98838.63;5097052;28;8895;-82
2021/05/05 04:12:41;;;;;;;;;15.50;15.25;;;;;33.11;53.96;98838.94;5090517;28;8840;-79
2021/05/05 04:15:32;;;;;;;;;12.50;12.50;;;;;33.11;53.45;98838.94;5084131;28;8796;-78
2021/05/05 04:18:17;;;;;;;;;14.00;14.00;;;;;33.23;52.84;98837.56;5085450;28;8829;-77
2021/05/05 04:21:04;;;;;;;;;14.00;12.25;;;;;33.35;54.14;98832.31;5085304;28;8978;-76
2021/05/05 04:23:51;;;;;;;;;10.00;10.00;;;;;33.44;52.01;98818.09;5084767;28;8790;-75
2021/05/05 04:26:20;;;;;;;;;12.00;12.00;;;;;33.48;53.75;98821.53;5083685;28;8949;-73
2021/05/05 04:28:51;;;;;;;;;13.20;11.80;;;;;33.57;53.59;98826.47;5085003;28;8856;-76
2021/05/05 04:31:28;;;;;;;;;14.75;14.75;;;;;33.52;53.83;98816.00;5082247;28;8852;-77
2021/05/05 04:33:59;;;;;;;;;12.60;12.60;;;;;33.57;53.80;98821.75;5082389;28;8869;-73
2021/05/05 04:36:27;;;;;;;;;18.00;18.00;;;;;33.56;53.09;98816.72;5082700;28;8938;-73
2021/05/05 04:38:55;;;;;;;;;13.00;13.00;;;;;33.57;53.25;98804.56;5082412;28;8840;-73
2021/05/05 04:41:23;;;;;;;;;17.00;15.75;;;;;33.54;53.08;98795.25;5083096;28;8830;-73
2021/05/05 04:43:56;;;;;;;;;13.00;12.40;;;;;33.53;53.69;98790.97;5080317;28;8863;-73
2021/05/05 04:46:28;;;;;;;;;9.80;9.80;;;;;33.58;52.92;98798.69;5098887;28;8837;-70
2021/05/05 04:48:56;;;;;;;;;11.80;11.80;;;;;33.59;52.29;98791.25;5098846;28;8855;-71
2021/05/05 04:51:27;;;;;;;;;13.80;13.80;;;;;33.63;53.21;98791.94;5093670;28;8860;-72
2021/05/05 04:53:55;;;;;;;;;14.20;13.60;;;;;33.71;53.54;98796.88;5093683;28;8836;-71
2021/05/05 04:56:24;;;;;;;;;8.40;8.40;;;;;33.72;53.29;98794.91;5092820;28;8884;-72
2021/05/05 04:59:00;;;;;;;;;12.50;12.50;;;;;33.69;53.07;98785.56;5093647;28;8859;-72
2021/05/05 05:01:29;;;;;;;;;10.80;10.80;;;;;33.67;53.09;98784.44;5093860;28;8856;-72
2021/05/05 05:03:57;;;;;;;;;11.40;11.40;;;;;33.74;51.81;98778.84;5093277;28;9061;-72
2021/05/05 05:06:25;;;;;;;;;12.40;12.40;;;;;33.79;53.00;98775.59;5086268;28;9558;-73
2021/05/05 05:08:54;;;;;;;;;16.00;14.20;;;;;33.89;52.81;98769.16;5099641;28;8840;-72
2021/05/05 05:11:22;;;;;;;;;10.20;9.60;;;;;33.95;52.37;98759.25;5084704;28;8964;-72
2021/05/05 05:19:19;;;;;;;;;7.60;7.60;;;;;34.18;51.31;98736.47;5084961;28;8805;-75
2021/05/05 05:21:47;;;;;;;;;11.40;11.40;;;;;34.28;51.93;98727.22;5077233;28;8836;-73
2021/05/05 05:24:16;;;;;;;;;12.20;12.20;;;;;34.38;51.67;98724.72;5081730;28;8864;-73
2021/05/05 05:26:44;;;;;;;;;11.20;11.20;;;;;34.34;52.07;98711.09;5080847;28;8857;-74
2021/05/05 05:29:17;;;;;;;;;9.80;9.80;;;;;34.37;51.64;98723.94;5075132;28;8859;-75
2021/05/05 05:31:46;;;;;;;;;8.20;8.20;;;;;34.33;51.57;98710.31;5069750;28;8855;-73
2021/05/05 05:34:15;;;;;;;;;23.50;23.50;;;;;34.38;51.38;98700.06;5070701;28;8839;-73
2021/05/05 05:36:43;;;;;;;;;19.75;19.75;;;;;34.51;50.64;98707.16;5070819;28;8864;-75
2021/05/05 05:39:11;;;;;;;;;11.80;11.80;;;;;34.63;50.15;98702.97;5070417;28;10001;-72
2021/05/05 05:41:40;;;;;;;;;13.40;12.20;;;;;34.74;49.78;98702.69;5069801;28;8859;-72
2021/05/05 05:44:09;;;;;;;;;6.80;6.80;;;;;34.84;50.39;98707.16;5070344;28;8844;-75
2021/05/05 05:46:40;;;;;;;;;14.00;13.20;;;;;34.87;48.55;98693.38;5070645;28;9557;-72
2021/05/05 05:49:09;;;;;;;;;12.80;12.20;;;;;34.95;49.40;98683.75;5068788;28;8885;-73
2021/05/05 05:51:37;;;;;;;;;11.40;11.40;;;;;35.00;50.99;98671.50;5085925;28;8871;-73
2021/05/05 05:54:06;;;;;;;;;12.80;12.80;;;;;34.98;50.48;98663.72;5071018;28;8856;-73
2021/05/05 05:56:34;;;;;;;;;11.60;11.60;;;;;34.87;50.63;98656.97;5070327;28;9449;-71
2021/05/05 05:59:02;;;;;;;;;10.40;10.40;;;;;34.83;50.47;98657.06;5073938;28;8872;-75
2021/05/05 06:01:31;;;;;;;;;9.60;9.60;;;;;34.76;50.61;98649.00;5094192;28;9008;-74
2021/05/05 06:03:59;;;;;;;;;11.60;11.60;;;;;34.79;50.50;98644.63;5079970;28;8857;-76
2021/05/05 06:06:28;;;;;;;;;10.40;10.00;;;;;34.89;51.03;98647.13;5089609;28;8840;-72
2021/05/05 06:08:56;;;;;;;;;10.20;10.20;;;;;34.97;48.01;98634.75;5091708;28;8861;-75
2021/05/05 06:11:24;;;;;;;;;9.40;9.40;;;;;35.10;48.25;98615.59;5092281;28;8849;-77
2021/05/05 06:13:52;;;;;;;;;11.80;11.80;;;;;35.33;48.05;98611.06;5092495;28;8868;-76
2021/05/05 06:16:20;;;;;;;;;12.80;12.80;;;;;35.51;47.28;98592.09;5092465;28;8926;-75
2021/05/05 06:18:48;;;;;;;;;10.80;10.00;;;;;35.75;48.70;98587.06;5108220;28;8868;-75
2021/05/05 06:21:17;;;;;;;;;12.00;12.00;;;;;35.90;48.89;98591.69;5092226;28;8926;-75
2021/05/05 06:23:45;;;;;;;;;10.40;10.40;;;;;35.92;48.78;98574.78;5092657;28;8845;-75
2021/05/05 06:26:13;;;;;;;;;10.80;10.80;;;;;35.86;48.63;98571.03;5092242;28;8865;-75
2021/05/05 06:28:41;;;;;;;;;13.20;12.60;;;;;35.71;49.08;98562.47;5092233;28;9625;-75
2021/05/05 06:31:09;;;;;;;;;15.20;13.80;;;;;35.66;49.24;98570.47;5092934;28;8886;-75
2021/05/05 06:33:38;;;;;;;;;9.60;9.60;;;;;35.61;49.67;98569.81;5092748;28;8910;-74
2021/05/05 06:36:06;;;;;;;;;13.20;13.20;;;;;35.58;48.29;98554.22;5092567;28;8841;-75
2021/05/05 06:38:35;;;;;;;;;12.00;12.00;;;;;35.61;49.63;98553.34;5092705;28;8841;-75
2021/05/05 06:41:04;;;;;;;;;12.80;12.80;;;;;35.64;48.48;98541.50;5092097;28;8841;-75
2021/05/05 06:43:33;;;;;;;;;12.00;11.40;;;;;35.67;47.66;98547.31;5092676;28;8853;-75
2021/05/05 06:46:02;;;;;;;;;12.60;12.60;;;;;35.73;47.39;98537.31;5092756;28;8841;-74
2021/05/05 06:48:30;;;;;;;;;13.60;13.40;;;;;35.86;47.04;98521.63;5092594;28;9631;-74
2021/05/05 06:50:59;;;;;;;;;11.80;11.80;;;;;36.05;46.62;98523.34;5092411;28;8862;-73
2021/05/05 06:53:29;;;;;;;;;10.60;10.60;;;;;36.27;47.66;98517.94;5089965;28;8845;-73
2021/05/05 06:55:59;;;;;;;;;11.00;11.00;;;;;36.42;47.20;98507.19;5090989;28;8817;-73
2021/05/05 06:58:27;;;;;;;;;12.20;12.20;;;;;36.64;46.56;98512.69;5091051;28;8894;-72
2021/05/05 07:00:55;;;;;;;;;11.00;11.00;;;;;36.75;48.49;98505.59;5090024;28;8857;-74
2021/05/05 07:03:24;;;;;;;;;11.60;11.60;;;;;36.72;47.95;98502.97;5090158;28;8845;-76
2021/05/05 07:05:52;;;;;;;;;11.20;11.00;;;;;36.62;48.10;98501.38;5091104;28;8887;-73
2021/05/05 07:08:20;;;;;;;;;10.40;10.40;;;;;36.45;47.91;98493.31;5092192;28;8849;-74
2021/05/05 07:10:49;;;;;;;;;10.00;10.00;;;;;36.28;48.15;98494.75;5089053;28;8860;-74
2021/05/05 07:13:17;;;;;;;;;12.80;12.80;;;;;36.06;48.39;98480.19;5104891;28;8857;-70
2021/05/05 07:15:45;;;;;;;;;11.40;11.40;;;;;35.90;47.73;98484.63;5091258;28;8846;-73
2021/05/05 07:18:13;;;;;;;;;14.20;13.40;;;;;35.74;47.00;98486.72;5090778;28;8984;-72
2021/05/05 07:20:42;;;;;;;;;11.20;11.20;;;;;35.64;47.42;98478.38;5090405;28;8918;-73
2021/05/05 07:23:10;;;;;;;;;12.60;12.60;;;;;35.60;47.95;98475.00;5090843;28;8849;-73
2021/05/05 07:25:38;;;;;;;;;12.00;12.00;;;;;35.59;47.39;98478.19;5090959;28;8846;-73
2021/05/05 07:28:08;;;;;;;;;10.80;10.80;;;;;35.60;48.15;98471.47;5091012;28;8849;-73
2021/05/05 07:30:37;;;;;;;;;15.00;15.00;;;;;35.62;46.75;98469.06;5089962;28;9593;-73
2021/05/05 07:33:06;;;;;;;;;11.20;11.20;;;;;35.62;46.58;98461.59;5090835;28;8849;-72
2021/05/05 07:35:35;;;;;;;;;11.60;11.60;;;;;35.71;46.21;98460.94;5090917;28;8841;-73
2021/05/05 07:46:28;;;;;;;;;12.60;12.60;;;;;36.20;48.15;98458.50;5095805;28;8865;-75
2021/05/05 07:48:58;;;;;;;;;10.40;10.40;;;;;36.21;46.40;98449.03;5095798;28;8922;-75
2021/05/05 07:51:25;;;;;;;;;10.60;10.60;;;;;36.28;45.23;98442.56;5096073;28;8890;-75
2021/05/05 07:53:52;;;;;;;;;5.40;5.40;;;;;36.43;46.83;98438.06;5096160;28;8781;-74
2021/05/05 07:56:19;;;;;;;;;9.00;9.00;;;;;36.57;48.22;98445.00;5096319;28;8782;-74
2021/05/05 07:58:47;;;;;;;;;12.40;12.40;;;;;36.56;47.59;98440.72;5096026;28;8848;-75
2021/05/05 08:01:17;;;;;;;;;10.40;10.40;;;;;36.51;47.78;98435.81;5095804;28;8840;-74
2021/05/05 08:03:46;;;;;;;;;12.40;12.40;;;;;36.44;45.01;98425.09;5095732;28;8848;-74
2021/05/05 08:06:16;;;;;;;;;11.40;11.40;;;;;36.51;45.42;98422.06;5095580;28;8829;-74
2021/05/05 08:08:45;;;;;;;;;12.60;12.60;;;;;36.62;46.05;98425.19;5095615;28;8845;-74
2021/05/05 08:11:13;;;;;;;;;13.60;13.60;;;;;36.73;44.66;98414.56;5095634;28;8849;-74
2021/05/05 08:13:50;;;;;;;;;11.00;11.00;;;;;36.91;44.31;98422.16;5095622;28;8845;-74
2021/05/05 08:16:19;;;;;;;;;10.80;10.80;;;;;37.02;45.04;98408.00;5095489;28;8866;-75
2021/05/05 08:18:49;;;;;;;;;12.80;12.80;;;;;37.18;45.72;98422.25;5095454;28;9554;-75
2021/05/05 08:21:17;;;;;;;;;15.00;14.60;;;;;37.18;43.29;98413.25;5096071;28;8845;-75
2021/05/05 08:23:45;;;;;;;;;11.80;11.60;;;;;37.19;44.35;98410.03;5095406;28;8829;-74
2021/05/05 08:26:14;;;;;;;;;10.40;10.40;;;;;37.23;43.40;98409.91;5095646;28;8961;-74
2021/05/05 08:28:42;;;;;;;;;12.40;10.60;;;;;37.35;43.93;98411.78;5110874;28;8826;-74
2021/05/05 08:31:13;;;;;;;;;12.60;12.60;;;;;37.40;46.68;98402.16;5095203;28;9652;-75
2021/05/05 08:33:42;;;;;;;;;9.40;9.40;;;;;37.45;45.59;98407.84;5095103;28;8833;-75
2021/05/05 08:36:10;;;;;;;;;10.60;10.60;;;;;37.42;44.89;98399.72;5110792;28;8884;-75
2021/05/05 08:38:38;;;;;;;;;7.60;7.60;;;;;37.35;45.99;98389.78;5110720;28;8837;-75
2021/05/05 08:41:09;;;;;;;;;11.00;11.00;;;;;37.26;45.94;98384.25;5094984;28;8914;-75
2021/05/05 08:43:38;;;;;;;;;15.00;15.00;;;;;37.20;45.62;98388.78;5095044;28;8841;-75
2021/05/05 08:46:07;;;;;;;;;10.60;10.60;;;;;37.08;44.02;98375.94;5095134;28;8922;-75
2021/05/05 08:48:35;;;;;;;;;11.00;11.00;;;;;37.03;43.74;98377.28;5095010;28;8829;-74
2021/05/05 08:51:08;;;;;;;;;10.80;10.80;;;;;37.06;45.39;98381.88;5093580;28;8841;-75
2021/05/05 08:53:36;;;;;;;;;8.40;8.40;;;;;37.10;46.87;98363.25;5094856;28;8938;-75
2021/05/05 08:56:05;;;;;;;;;11.60;11.60;;;;;37.03;44.88;98357.28;5094781;28;8957;-75
2021/05/05 08:58:33;;;;;;;;;11.00;11.00;;;;;37.00;43.73;98355.44;5094769;28;8984;-75
2021/05/05 09:01:04;;;;;;;;;10.80;9.80;;;;;37.01;44.33;98348.72;5094665;28;8833;-75
2021/05/05 09:03:40;;;;;;;;;11.40;11.40;;;;;37.04;45.30;98343.06;5094723;28;8833;-74
2021/05/05 09:06:09;;;;;;;;;14.60;14.60;;;;;37.03;46.15;98344.28;5094622;28;8853;-75
2021/05/05 09:08:48;;;;;;;;;11.00;11.00;;;;;36.95;45.42;98350.53;5110160;28;8849;-75
2021/05/05 09:11:16;;;;;;;;;11.40;11.40;;;;;36.86;46.08;98345.78;5094510;28;8830;-75
2021/05/05 09:13:51;;;;;;;;;12.20;11.60;;;;;36.79;46.82;98338.56;5094460;28;8840;-75
2021/05/05 09:16:30;;;;;;;;;9.40;9.40;;;;;36.74;45.80;98349.38;5094530;28;8833;-74
2021/05/05 09:19:09;;;;;;;;;11.00;11.00;;;;;36.65;44.21;98344.59;5094399;28;8837;-74
2021/05/05 09:21:42;;;;;;;;;10.40;10.40;;;;;36.68;45.07;98348.41;5094196;28;9628;-74
2021/05/05 09:24:27;;;;;;;;;11.60;11.60;;;;;36.62;44.83;98329.00;5094260;28;8906;-74
2021/05/05 09:27:06;;;;;;;;;11.00;11.00;;;;;36.74;46.12;98347.38;5094191;28;8934;-74
2021/05/05 09:29:45;;;;;;;;;12.40;11.20;;;;;36.71;46.55;98347.53;5094332;28;8833;-75
2021/05/05 09:32:17;;;;;;;;;13.00;13.00;;;;;36.59;44.74;98340.91;5094066;28;8857;-75
2021/05/05 09:35:03;;;;;;;;;12.40;12.00;;;;;36.52;44.62;98335.69;5109481;28;8860;-75
2021/05/05 09:37:32;;;;;;;;;11.80;11.80;;;;;36.46;46.37;98326.50;5092788;28;8856;-75
2021/05/05 09:40:08;;;;;;;;;7.20;7.20;;;;;36.47;45.81;98328.78;5092649;28;8913;-75
2021/05/05 09:42:44;;;;;;;;;13.40;13.40;;;;;36.41;45.97;98321.59;5093907;28;8865;-75
2021/05/05 09:45:13;;;;;;;;;11.60;11.60;;;;;36.31;44.58;98315.31;5093930;28;8852;-75
2021/05/05 09:47:54;;;;;;;;;12.40;12.40;;;;;36.28;44.61;98321.72;5094093;28;8839;-75
2021/05/05 09:50:37;;;;;;;;;10.80;10.80;;;;;36.23;44.66;98330.50;5093547;28;8833;-75
2021/05/05 09:53:38;;;;;;;;;11.60;11.60;;;;;36.24;45.45;98337.53;5093681;28;8938;-74
2021/05/05 09:56:09;;;;;;;;;12.40;12.40;;;;;36.16;45.74;98347.25;5093627;28;8837;-75
2021/05/05 09:58:43;;;;;;;;;13.00;12.40;;;;;36.04;46.01;98342.59;5093539;28;8845;-75
2021/05/05 10:01:14;;;;;;;;;15.00;14.20;;;;;35.95;47.53;98340.53;5093432;28;8865;-75
2021/05/05 10:03:55;;;;;;;;;14.20;14.20;;;;;35.85;47.24;98334.22;5093115;28;8833;-74
2021/05/05 10:06:32;;;;;;;;;15.00;14.80;;;;;35.67;46.63;98341.53;5093516;28;8865;-74
2021/05/05 10:09:21;;;;;;;;;11.20;10.60;;;;;35.49;46.70;98353.09;5093404;28;8829;-75
2021/05/05 10:11:50;;;;;;;;;16.60;16.60;;;;;35.44;46.14;98356.41;5093279;28;8864;-75
2021/05/05 10:14:20;;;;;;;;;12.40;12.40;;;;;35.40;47.46;98353.78;5093841;28;8858;-74
2021/05/05 10:16:50;;;;;;;;;12.80;12.80;;;;;35.38;46.95;98349.94;5093619;28;8845;-74
2021/05/05 10:19:26;;;;;;;;;13.20;13.20;;;;;35.34;47.25;98365.75;5093091;28;8879;-74
2021/05/05 10:21:56;;;;;;;;;11.40;11.40;;;;;35.28;46.40;98354.56;5093080;28;8833;-75
2021/05/05 10:24:26;;;;;;;;;12.40;11.40;;;;;35.23;46.89;98355.09;5093044;28;8944;-74
2021/05/05 10:26:54;;;;;;;;;12.00;12.00;;;;;35.19;47.07;98357.19;5093021;28;8845;-75
2021/05/05 10:29:23;;;;;;;;;10.20;10.20;;;;;35.18;47.14;98372.13;5093052;28;8890;-75
2021/05/05 10:32:05;;;;;;;;;12.40;11.60;;;;;35.13;47.09;98378.16;5092982;28;8853;-75
2021/05/05 10:34:33;;;;;;;;;10.20;10.20;;;;;35.08;46.21;98376.00;5092999;28;8857;-75
2021/05/05 10:37:04;;;;;;;;;14.80;12.40;;;;;35.03;45.63;98368.31;5092949;28;8873;-75
2021/05/05 10:39:37;;;;;;;;;13.60;13.60;;;;;35.06;46.68;98376.44;5092815;28;8837;-75
2021/05/05 10:42:16;;;;;;;;;13.80;13.80;;;;;35.04;46.01;98380.81;5092977;28;8833;-75
2021/05/05 10:44:55;;;;;;;;;16.80;13.80;;;;;34.99;45.96;98374.69;5092641;28;8841;-75
2021/05/05 10:47:31;;;;;;;;;15.20;15.20;;;;;35.02;46.35;98361.31;5092668;28;8907;-74
2021/05/05 10:50:16;;;;;;;;;15.60;15.60;;;;;35.00;47.14;98353.53;5092199;28;8879;-74
2021/05/05 10:52:47;;;;;;;;;12.80;12.60;;;;;34.95;47.01;98360.31;5092518;28;8863;-74
2021/05/05 10:55:19;;;;;;;;;12.40;11.60;;;;;34.90;45.92;98362.84;5092520;28;8841;-74
2021/05/05 10:58:04;;;;;;;;;12.80;12.80;;;;;34.88;45.73;98374.25;5092526;28;8846;-75
2021/05/05 11:00:47;;;;;;;;;17.00;17.00;;;;;34.87;46.41;98378.19;5092454;28;9678;-75
2021/05/05 11:03:16;;;;;;;;;14.20;14.20;;;;;34.85;47.00;98386.09;5092430;28;8825;-74
2021/05/05 11:05:47;;;;;;;;;15.80;15.80;;;;;34.83;47.48;98393.22;5092305;28;8834;-74
2021/05/05 11:08:31;;;;;;;;;15.20;15.20;;;;;34.76;47.41;98401.63;5092882;28;8868;-74
2021/05/05 11:10:59;;;;;;;;;14.60;14.60;;;;;34.71;47.76;98416.63;5092383;28;8838;-75
2021/05/05 11:13:43;;;;;;;;;25.50;23.00;;;;;34.63;47.46;98429.78;5091773;28;8837;-74
2021/05/05 11:16:12;;;;;;;;;21.60;21.60;;;;;34.53;47.88;98447.28;5107724;28;9469;-74
2021/05/05 11:18:42;;;;;;;;;19.60;19.60;;;;;34.44;47.93;98438.94;5092255;28;9649;-74
2021/05/05 11:21:32;;;;;;;;;18.20;18.20;;;;;34.42;48.32;98457.00;5107678;28;8845;-74
2021/05/05 11:24:00;;;;;;;;;15.80;15.80;;;;;34.34;48.60;98462.66;5092060;28;8845;-75
2021/05/05 11:26:31;;;;;;;;;7.40;7.40;;;;;34.33;48.50;98465.84;5092256;28;8863;-75
2021/05/05 11:29:11;;;;;;;;;19.60;19.60;;;;;34.32;48.54;98458.81;5092162;28;8833;-74
2021/05/05 11:31:59;;;;;;;;;25.25;25.25;;;;;34.33;48.52;98482.28;5092192;28;8908;-74
2021/05/05 11:34:38;;;;;;;;;19.60;19.60;;;;;34.29;48.79;98490.56;5092100;28;8845;-75
2021/05/05 11:37:27;;;;;;;;;18.60;18.00;;;;;34.25;49.01;98509.03;5092838;28;8938;-75
2021/05/05 11:39:56;;;;;;;;;17.20;17.20;;;;;34.20;49.24;98517.78;5091911;28;8873;-75
2021/05/05 11:42:32;;;;;;;;;16.80;16.80;;;;;34.19;49.30;98529.94;5091995;28;8867;-75
2021/05/05 11:45:21;;;;;;;;;22.00;22.00;;;;;34.18;49.07;98544.03;5091880;28;8949;-74
2021/05/05 11:47:50;;;;;;;;;20.00;19.50;;;;;34.15;49.32;98539.44;5092150;28;8853;-75
2021/05/05 11:50:26;;;;;;;;;19.50;19.50;;;;;34.13;49.11;98544.56;5091740;28;8845;-74
2021/05/05 11:52:57;;;;;;;;;19.50;19.50;;;;;34.10;49.25;98539.94;5091861;28;8894;-74
2021/05/05 11:55:28;;;;;;;;;21.25;20.50;;;;;34.08;48.50;98550.56;5091839;28;8914;-74
2021/05/05 11:57:59;;;;;;;;;19.80;19.80;;;;;34.03;48.56;98543.63;5092084;28;8856;-75
2021/05/05 12:00:33;;;;;;;;;16.00;16.00;;;;;33.95;48.81;98543.03;5091850;28;8825;-74